createdAt,value
2022-10-18T00:01:59.974Z,11.48
2022-10-18T00:04:30.269Z,13.07
2022-10-18T00:07:00.478Z,11.73
2022-10-18T00:09:30.728Z,12.80
2022-10-18T00:12:00.970Z,13.23
2022-10-18T00:14:33.904Z,11.75
2022-10-18T00:17:04.041Z,12.32
2022-10-18T00:19:34.189Z,12.88
2022-10-18T00:22:04.350Z,11.93
2022-10-18T00:24:34.570Z,11.55
2022-10-18T00:27:04.710Z,12.88
2022-10-18T00:29:37.800Z,12.23
2022-10-18T00:32:08.579Z,11.70
2022-10-18T00:34:38.756Z,11.45
2022-10-18T00:37:09.328Z,13.25
2022-10-18T00:39:39.630Z,11.50
2022-10-18T00:42:10.167Z,12.07
2022-10-18T00:45:23.381Z,12.30
2022-10-18T00:47:58.362Z,11.98
2022-10-18T00:50:30.977Z,12.93
2022-10-18T00:53:06.523Z,11.98
2022-10-18T00:55:37.791Z,11.40
2022-10-18T00:58:09.209Z,11.82
2022-10-18T01:00:42.016Z,10.98
2022-10-18T01:03:12.639Z,11.40
2022-10-18T01:05:47.898Z,12.43
2022-10-18T01:08:40.396Z,11.90
2022-10-18T01:11:34.797Z,11.43
2022-10-18T01:14:19.219Z,12.10
2022-10-18T01:17:00.297Z,10.30
2022-10-18T01:20:06.267Z,11.20
2022-10-18T01:22:44.291Z,10.32
2022-10-18T01:25:28.983Z,10.90
2022-10-18T01:28:08.108Z,11.57
2022-10-18T01:30:57.303Z,10.23
2022-10-18T01:33:35.856Z,10.55
2022-10-18T01:36:14.684Z,10.15
2022-10-18T01:38:46.896Z,10.95
2022-10-18T01:41:18.761Z,10.73
2022-10-18T01:43:51.618Z,9.85
2022-10-18T01:46:28.381Z,10.00
2022-10-18T01:48:59.438Z,9.32
2022-10-18T01:51:32.307Z,9.52
2022-10-18T01:54:03.462Z,9.88
2022-10-18T01:56:47.236Z,10.02
2022-10-18T01:59:45.759Z,10.23
2022-10-18T02:02:31.051Z,9.25
2022-10-18T02:05:09.179Z,10.18
2022-10-18T02:07:51.898Z,10.27
2022-10-18T02:10:36.986Z,9.77
2022-10-18T02:13:07.432Z,10.88
2022-10-18T02:15:42.398Z,10.68
2022-10-18T02:18:19.969Z,11.48
2022-10-18T02:20:51.908Z,10.98
2022-10-18T02:23:26.365Z,11.85
2022-10-18T02:25:57.228Z,11.85
2022-10-18T02:28:27.652Z,10.93
2022-10-18T02:31:07.243Z,12.45
2022-10-18T02:33:47.047Z,12.55
2022-10-18T02:36:25.107Z,11.40
2022-10-18T02:39:00.198Z,11.05
2022-10-18T02:41:31.114Z,11.45
2022-10-18T02:44:01.323Z,10.73
2022-10-18T02:46:31.838Z,11.90
2022-10-18T02:49:04.622Z,11.40
2022-10-18T02:51:35.087Z,10.88
2022-10-18T02:54:05.234Z,11.38
2022-10-18T02:56:35.348Z,12.77
2022-10-18T02:59:07.505Z,10.95
2022-10-18T03:01:37.873Z,11.48
2022-10-18T03:04:10.776Z,11.77
2022-10-18T03:06:41.112Z,10.98
2022-10-18T03:09:11.268Z,11.93
2022-10-18T03:11:41.333Z,12.13
2022-10-18T03:14:11.413Z,12.55
2022-10-18T03:16:41.538Z,12.25
2022-10-18T03:19:14.355Z,12.35
2022-10-18T03:21:44.983Z,12.15
2022-10-18T03:24:15.218Z,11.45
2022-10-18T03:26:45.517Z,12.63
2022-10-18T03:29:16.133Z,13.60
2022-10-18T03:31:46.384Z,12.35
2022-10-18T03:34:19.766Z,12.80
2022-10-18T03:36:50.018Z,13.60
2022-10-18T03:39:20.424Z,15.30
2022-10-18T03:41:50.796Z,14.35
2022-10-18T03:44:21.093Z,13.15
2022-10-18T03:46:51.300Z,12.82
2022-10-18T03:49:24.091Z,12.98
2022-10-18T03:51:54.487Z,13.98
2022-10-18T03:54:24.605Z,13.77
2022-10-18T03:56:54.827Z,12.55
2022-10-18T03:59:25.537Z,13.70
2022-10-18T04:01:55.679Z,12.57
2022-10-18T04:04:28.390Z,13.45
2022-10-18T04:06:58.508Z,12.38
2022-10-18T04:09:28.733Z,13.32
2022-10-18T04:11:58.852Z,12.55
2022-10-18T04:14:29.359Z,11.70
2022-10-18T04:16:59.612Z,12.95
2022-10-18T04:19:32.446Z,12.98
2022-10-18T04:22:02.514Z,13.00
2022-10-18T04:24:32.525Z,12.77
2022-10-18T04:27:02.624Z,12.60
2022-10-18T04:29:32.775Z,13.48
2022-10-18T04:32:03.227Z,11.70
2022-10-18T04:34:36.214Z,12.85
2022-10-18T04:37:06.348Z,12.75
2022-10-18T04:39:36.511Z,12.35
2022-10-18T04:42:06.864Z,11.68
2022-10-18T04:44:37.220Z,12.55
2022-10-18T04:47:07.444Z,12.82
2022-10-18T04:49:40.256Z,12.20
2022-10-18T04:52:10.907Z,11.98
2022-10-18T04:54:41.143Z,11.88
2022-10-18T04:57:11.229Z,11.23
2022-10-18T04:59:41.363Z,10.73
2022-10-18T05:02:11.681Z,11.85
2022-10-18T05:04:44.466Z,13.02
2022-10-18T05:07:14.567Z,12.10
2022-10-18T05:09:46.194Z,11.73
2022-10-18T05:12:16.329Z,12.10
2022-10-18T05:14:46.623Z,12.52
2022-10-18T05:17:16.774Z,12.07
2022-10-18T05:19:49.534Z,13.00
2022-10-18T05:22:19.720Z,13.02
2022-10-18T05:24:50.033Z,12.48
2022-10-18T05:27:20.208Z,13.23
2022-10-18T05:29:50.317Z,12.45
2022-10-18T05:32:20.516Z,12.68
2022-10-18T05:34:53.301Z,11.95
2022-10-18T05:37:27.582Z,12.18
2022-10-18T05:39:58.601Z,12.63
2022-10-18T05:42:28.966Z,11.63
2022-10-18T05:44:59.236Z,13.75
2022-10-18T05:47:29.497Z,12.73
2022-10-18T05:50:02.201Z,14.15
2022-10-18T05:52:32.473Z,11.25
2022-10-18T05:55:02.897Z,11.77
2022-10-18T05:57:33.304Z,12.13
2022-10-18T06:00:03.789Z,11.70
2022-10-18T06:02:33.979Z,12.00
2022-10-18T06:05:07.667Z,12.80
2022-10-18T06:07:37.786Z,12.38
2022-10-18T06:10:09.544Z,12.95
2022-10-18T06:12:39.788Z,13.25
2022-10-18T06:15:11.423Z,12.45
2022-10-18T06:17:41.578Z,13.63
2022-10-18T06:20:14.741Z,13.60
2022-10-18T06:22:44.891Z,11.90
2022-10-18T06:25:15.029Z,13.80
2022-10-18T06:27:45.180Z,13.25
2022-10-18T06:30:15.798Z,13.23
2022-10-18T06:32:45.866Z,13.30
2022-10-18T06:35:18.941Z,12.80
2022-10-18T06:37:49.592Z,13.40
2022-10-18T06:40:20.083Z,11.75
2022-10-18T06:43:00.032Z,12.85
2022-10-18T06:45:31.012Z,12.98
2022-10-18T06:48:01.407Z,12.38
2022-10-18T06:50:34.539Z,11.85
2022-10-18T06:53:06.512Z,11.85
2022-10-18T06:55:36.776Z,12.73
2022-10-18T06:58:06.919Z,11.80
2022-10-18T07:00:36.956Z,12.07
2022-10-18T07:03:07.285Z,12.50
2022-10-18T07:05:40.154Z,12.48
2022-10-18T07:08:10.380Z,12.57
2022-10-18T07:10:40.572Z,11.70
2022-10-18T07:13:31.362Z,11.30
2022-10-18T07:16:06.647Z,11.88
2022-10-18T07:18:38.037Z,11.48
2022-10-18T07:21:15.077Z,11.18
2022-10-18T07:23:47.179Z,11.55
2022-10-18T07:26:19.959Z,11.20
2022-10-18T07:28:54.372Z,11.15
2022-10-18T07:31:25.476Z,9.57
2022-10-18T07:33:56.073Z,9.88
2022-10-18T07:36:28.983Z,9.63
2022-10-18T07:38:59.816Z,10.07
2022-10-18T07:41:32.028Z,9.82
2022-10-18T07:44:02.500Z,9.70
2022-10-18T07:46:32.777Z,10.20
2022-10-18T07:49:02.988Z,9.70
2022-10-18T07:51:36.244Z,10.02
2022-10-18T07:54:06.610Z,9.52
2022-10-18T07:56:36.795Z,9.20
2022-10-18T07:59:06.966Z,8.95
2022-10-18T08:01:37.928Z,9.35
2022-10-18T08:04:11.604Z,9.90
2022-10-18T08:06:47.808Z,8.93
2022-10-18T08:09:17.975Z,9.23
2022-10-18T08:11:48.197Z,9.32
2022-10-18T08:14:18.316Z,10.48
2022-10-18T08:16:51.192Z,9.70
2022-10-18T08:19:21.401Z,9.95
2022-10-18T08:21:54.266Z,8.82
2022-10-18T08:24:25.116Z,8.85
2022-10-18T08:26:55.258Z,7.90
2022-10-18T08:29:29.141Z,7.80
2022-10-18T08:32:01.027Z,8.38
2022-10-18T08:34:31.112Z,7.97
2022-10-18T08:37:04.000Z,8.00
2022-10-18T08:39:34.340Z,8.95
2022-10-18T08:42:27.304Z,8.57
2022-10-18T08:45:00.164Z,8.23
2022-10-18T08:47:39.346Z,8.63
2022-10-18T08:50:16.616Z,8.63
2022-10-18T08:52:57.391Z,9.05
2022-10-18T08:55:36.415Z,8.77
2022-10-18T08:58:07.633Z,9.25
2022-10-18T09:00:43.648Z,9.45
2022-10-18T09:03:39.270Z,9.90
2022-10-18T09:06:22.762Z,10.40
2022-10-18T09:09:23.668Z,10.00
2022-10-18T09:12:06.139Z,10.00
2022-10-18T09:14:56.309Z,10.27
2022-10-18T09:17:39.869Z,10.10
2022-10-18T09:20:23.851Z,10.50
2022-10-18T09:23:01.225Z,9.38
2022-10-18T09:25:39.869Z,10.15
2022-10-18T09:28:20.104Z,9.70
2022-10-18T09:31:02.542Z,10.25
2022-10-18T09:33:48.446Z,10.68
2022-10-18T09:36:23.947Z,9.82
2022-10-18T09:39:00.394Z,9.65
2022-10-18T09:41:40.920Z,9.60
2022-10-18T09:44:22.620Z,10.57
2022-10-18T09:46:58.668Z,10.02
2022-10-18T09:49:33.909Z,9.98
2022-10-18T09:52:09.688Z,10.02
2022-10-18T09:54:46.396Z,10.18
2022-10-18T09:57:26.843Z,9.82
2022-10-18T09:59:56.963Z,9.27
2022-10-18T10:02:27.473Z,9.50
2022-10-18T10:04:57.628Z,8.70
2022-10-18T10:07:34.073Z,9.57
2022-10-18T10:10:16.720Z,9.07
2022-10-18T10:12:50.755Z,9.48
2022-10-18T10:15:28.209Z,8.82
2022-10-18T10:18:06.461Z,7.82
2022-10-18T10:20:45.235Z,7.78
2022-10-18T10:23:23.416Z,7.72
2022-10-18T10:25:56.875Z,7.13
2022-10-18T10:28:34.724Z,7.65
2022-10-18T10:31:24.364Z,8.38
2022-10-18T10:34:03.116Z,7.72
2022-10-18T10:36:35.315Z,7.60
2022-10-18T10:39:12.464Z,7.32
2022-10-18T10:41:44.532Z,7.13
2022-10-18T10:44:22.707Z,6.80
2022-10-18T10:46:55.142Z,6.63
2022-10-18T10:49:39.744Z,6.22
2022-10-18T10:52:28.547Z,6.47
2022-10-18T10:55:16.717Z,6.43
2022-10-18T10:57:55.552Z,6.10
2022-10-18T11:00:47.484Z,6.47
2022-10-18T11:03:29.457Z,6.68
2022-10-18T11:06:02.026Z,6.13
2022-10-18T11:08:40.024Z,6.70
2022-10-18T11:11:23.134Z,5.75
2022-10-18T11:14:13.668Z,6.07
2022-10-18T11:17:06.968Z,6.35
2022-10-18T11:19:45.866Z,6.80
2022-10-18T11:22:22.234Z,6.78
2022-10-18T11:24:52.545Z,6.53
2022-10-18T11:27:28.575Z,5.53
2022-10-18T11:30:38.318Z,6.25
2022-10-18T11:33:38.298Z,6.03
2022-10-18T11:36:21.390Z,5.32
2022-10-18T11:38:59.229Z,6.30
2022-10-18T11:41:39.960Z,6.15
2022-10-18T11:44:19.804Z,6.38
2022-10-18T11:47:02.043Z,6.93
2022-10-18T11:50:00.368Z,6.45
2022-10-18T11:52:41.818Z,5.30
2022-10-18T11:55:32.801Z,5.85
2022-10-18T11:58:16.091Z,6.10
2022-10-18T12:00:52.346Z,6.18
2022-10-18T12:03:32.100Z,6.68
2022-10-18T12:06:09.392Z,6.18
2022-10-18T12:08:44.786Z,6.10
2022-10-18T12:11:20.746Z,6.30
2022-10-18T12:13:54.906Z,6.70
2022-10-18T12:16:45.910Z,6.80
2022-10-18T12:19:26.695Z,6.68
2022-10-18T12:22:09.128Z,6.28
2022-10-18T12:24:40.240Z,6.13
2022-10-18T12:27:15.008Z,5.57
2022-10-18T12:29:54.940Z,5.35
2022-10-18T12:32:30.214Z,5.80
2022-10-18T12:35:04.841Z,6.07
2022-10-18T12:38:13.861Z,6.45
2022-10-18T12:40:48.598Z,6.53
2022-10-18T12:43:25.766Z,6.57
2022-10-18T12:46:00.257Z,6.68
2022-10-18T12:48:42.680Z,7.00
2022-10-18T12:51:18.561Z,6.50
2022-10-18T12:53:57.112Z,8.20
2022-10-18T12:56:42.262Z,7.47
2022-10-18T12:59:54.128Z,7.32
2022-10-18T13:02:33.762Z,7.05
2022-10-18T13:05:06.792Z,7.72
2022-10-18T13:07:44.902Z,7.93
2022-10-18T13:10:44.940Z,8.27
2022-10-18T13:13:50.900Z,8.07
2022-10-18T13:16:39.559Z,8.15
2022-10-18T13:19:25.212Z,8.30
2022-10-18T13:22:09.404Z,8.10
2022-10-18T13:24:43.086Z,8.90
2022-10-18T13:27:46.910Z,9.32
2022-10-18T13:30:45.213Z,8.10
2022-10-18T13:33:35.926Z,7.32
2022-10-18T13:36:09.004Z,8.80
2022-10-18T13:38:47.895Z,9.65
2022-10-18T13:41:21.890Z,8.60
2022-10-18T13:44:17.227Z,8.30
2022-10-18T13:50:20.748Z,9.30
2022-10-18T13:53:35.402Z,8.75
2022-10-18T13:56:36.629Z,8.55
2022-10-18T13:59:40.522Z,9.20
2022-10-18T14:02:59.760Z,8.77
2022-10-18T14:05:52.551Z,8.70
2022-10-18T14:08:28.284Z,9.90
2022-10-18T14:11:06.676Z,8.65
2022-10-18T14:13:51.138Z,8.90
2022-10-18T14:16:36.705Z,8.93
2022-10-18T14:19:18.036Z,9.40
2022-10-18T14:21:57.593Z,10.38
2022-10-18T14:24:30.686Z,10.30
2022-10-18T14:27:15.661Z,10.85
2022-10-18T14:32:30.077Z,8.80
2022-10-18T14:35:30.682Z,8.98
2022-10-18T14:37:52.576Z,8.73
2022-10-18T14:40:38.157Z,8.90
2022-10-18T14:43:14.440Z,9.15
2022-10-18T14:45:45.432Z,8.77
2022-10-18T14:48:24.133Z,8.13
2022-10-18T14:51:02.508Z,8.73
2022-10-18T14:53:40.053Z,8.38
2022-10-18T14:56:11.207Z,8.80
2022-10-18T14:58:44.653Z,9.48
2022-10-18T15:01:19.917Z,8.82
2022-10-18T15:03:53.369Z,9.20
2022-10-18T15:06:24.043Z,9.30
2022-10-18T15:08:59.808Z,8.18
2022-10-18T15:11:31.692Z,8.75
2022-10-18T15:14:06.988Z,9.77
2022-10-18T15:16:38.527Z,9.50
2022-10-18T15:19:32.216Z,9.07
2022-10-18T15:25:19.702Z,10.45
2022-10-18T15:30:28.231Z,10.40
2022-10-18T15:33:01.538Z,9.88
2022-10-18T15:35:37.186Z,10.98
2022-10-18T15:38:19.513Z,10.43
2022-10-18T15:40:50.389Z,10.38
2022-10-18T15:43:42.177Z,12.00
2022-10-18T15:46:34.673Z,11.38
2022-10-18T15:49:55.441Z,10.75
2022-10-18T15:52:43.823Z,10.15
2022-10-18T15:55:47.477Z,10.60
2022-10-18T15:58:26.223Z,10.90
2022-10-18T16:01:00.714Z,11.45
2022-10-18T16:03:32.876Z,10.82
2022-10-18T16:06:09.928Z,11.48
2022-10-18T16:08:48.309Z,11.85
2022-10-18T16:11:21.813Z,11.82
2022-10-18T16:13:56.404Z,11.07
2022-10-18T16:16:32.326Z,10.90
2022-10-18T16:19:02.777Z,11.75
2022-10-18T16:21:37.350Z,12.38
2022-10-18T16:26:40.965Z,11.10
2022-10-18T16:29:15.457Z,12.07
2022-10-18T16:31:46.830Z,10.70
2022-10-18T16:34:17.539Z,11.43
2022-10-18T16:36:48.192Z,11.48
2022-10-18T16:39:23.793Z,12.98
2022-10-18T16:41:55.125Z,12.23
2022-10-18T16:44:25.328Z,11.48
2022-10-18T16:46:56.432Z,11.75
2022-10-18T16:49:28.783Z,10.70
2022-10-18T16:51:59.670Z,11.93
2022-10-18T16:54:32.640Z,10.95
2022-10-18T16:57:03.238Z,10.93
2022-10-18T16:59:34.934Z,10.80
2022-10-18T17:02:09.102Z,10.93
2022-10-18T17:04:39.570Z,11.90
2022-10-18T17:07:12.970Z,10.15
2022-10-18T17:09:45.996Z,10.38
2022-10-18T17:12:16.457Z,11.07
2022-10-18T17:14:46.705Z,10.80
2022-10-18T17:17:17.160Z,11.05
2022-10-18T17:19:47.673Z,10.90
2022-10-18T17:22:17.886Z,10.90
2022-10-18T17:24:51.086Z,12.35
2022-10-18T17:27:21.449Z,12.02
2022-10-18T17:29:51.620Z,11.75
2022-10-18T17:32:21.986Z,13.60
2022-10-18T17:34:52.226Z,12.77
2022-10-18T17:37:22.641Z,12.20
2022-10-18T17:39:55.584Z,12.27
2022-10-18T17:42:25.743Z,12.40
2022-10-18T17:44:57.779Z,13.75
2022-10-18T17:47:28.590Z,14.05
2022-10-18T17:49:59.108Z,14.68
2022-10-18T17:52:29.678Z,16.75
2022-10-18T17:55:02.623Z,15.48
2022-10-18T17:57:33.320Z,16.52
2022-10-18T18:00:03.779Z,17.58
2022-10-18T18:02:36.115Z,17.85
2022-10-18T18:07:42.098Z,17.85
2022-10-18T18:10:15.333Z,17.77
2022-10-18T18:12:48.109Z,18.25
2022-10-18T18:15:18.609Z,17.98
2022-10-18T18:17:58.883Z,16.95
2022-10-18T18:20:29.816Z,16.17
2022-10-18T18:23:00.006Z,16.98
2022-10-18T18:25:32.777Z,17.20
2022-10-18T18:28:06.603Z,17.67
2022-10-18T18:33:07.995Z,17.13
2022-10-18T18:35:38.142Z,15.57
2022-10-18T18:38:09.609Z,15.70
2022-10-18T18:40:42.520Z,16.08
2022-10-18T18:43:23.083Z,16.83
2022-10-18T18:45:54.698Z,20.67
2022-10-18T18:48:24.914Z,22.88
2022-10-18T18:50:55.343Z,19.83
2022-10-18T18:53:28.641Z,22.10
2022-10-18T18:56:08.516Z,22.67
2022-10-18T18:58:40.783Z,21.02
2022-10-18T19:01:12.907Z,18.35
2022-10-18T19:03:43.652Z,17.58
2022-10-18T19:06:17.902Z,17.05
2022-10-18T19:08:49.411Z,15.43
2022-10-18T19:11:25.028Z,18.60
2022-10-18T19:13:55.130Z,18.63
2022-10-18T19:16:28.542Z,19.15
2022-10-18T19:19:05.075Z,18.40
2022-10-18T19:21:38.055Z,18.75
2022-10-18T19:24:09.279Z,19.00
2022-10-18T19:26:45.430Z,18.23
2022-10-18T19:29:18.087Z,18.75
2022-10-18T19:31:48.729Z,20.85
2022-10-18T19:34:20.130Z,19.50
2022-10-18T19:36:51.686Z,18.60
2022-10-18T19:39:24.537Z,18.63
2022-10-18T19:41:59.641Z,17.45
2022-10-18T19:44:33.332Z,16.17
2022-10-18T19:47:03.918Z,17.58
2022-10-18T19:49:34.117Z,13.77
2022-10-18T19:52:04.278Z,14.27
2022-10-18T19:54:34.536Z,14.88
2022-10-18T19:57:07.724Z,12.55
2022-10-18T20:02:29.833Z,11.73
2022-10-18T20:05:02.198Z,12.73
2022-10-18T20:07:32.644Z,12.38
2022-10-18T20:10:03.512Z,11.07
2022-10-18T20:12:36.660Z,10.65
2022-10-18T20:15:09.037Z,8.55
2022-10-18T20:17:39.320Z,8.82
2022-10-18T20:20:11.676Z,8.55
2022-10-18T20:22:41.828Z,8.77
2022-10-18T20:25:12.766Z,7.60
2022-10-18T20:27:45.444Z,7.70
2022-10-18T20:30:15.622Z,7.63
2022-10-18T20:32:45.757Z,7.65
2022-10-18T20:35:16.697Z,7.70
2022-10-18T20:37:47.432Z,7.15
2022-10-18T20:40:19.491Z,7.68
2022-10-18T20:42:54.997Z,6.18
2022-10-18T20:45:26.119Z,6.85
2022-10-18T20:47:56.222Z,7.32
2022-10-18T20:50:26.375Z,6.72
2022-10-18T20:52:56.577Z,6.70
2022-10-18T20:55:26.685Z,6.80
2022-10-18T20:58:00.944Z,6.95
2022-10-18T21:00:31.807Z,7.85
2022-10-18T21:03:02.157Z,8.05
2022-10-18T21:05:32.570Z,8.20
2022-10-18T21:08:02.752Z,7.28
2022-10-18T21:10:32.897Z,7.28
2022-10-18T21:13:05.600Z,6.40
2022-10-18T21:15:35.747Z,5.70
2022-10-18T21:18:05.989Z,6.22
2022-10-18T21:20:36.125Z,6.65
2022-10-18T21:23:06.202Z,6.13
2022-10-18T21:25:36.315Z,6.45
2022-10-18T21:28:09.122Z,7.13
2022-10-18T21:30:39.191Z,7.28
2022-10-18T21:33:09.846Z,7.43
2022-10-18T21:35:40.752Z,7.00
2022-10-18T21:38:11.097Z,7.47
2022-10-18T21:40:44.745Z,7.32
2022-10-18T21:43:17.547Z,7.10
2022-10-18T21:45:47.599Z,7.05
2022-10-18T21:48:17.786Z,6.93
2022-10-18T21:50:47.973Z,6.97
2022-10-18T21:53:18.203Z,7.25
2022-10-18T21:55:48.433Z,6.90
2022-10-18T21:58:21.555Z,6.88
2022-10-18T22:00:51.781Z,6.93
2022-10-18T22:03:23.414Z,7.40
2022-10-18T22:06:01.531Z,6.75
2022-10-18T22:08:32.412Z,7.15
2022-10-18T22:11:03.292Z,7.32
2022-10-18T22:13:35.984Z,6.53
2022-10-18T22:16:08.359Z,6.10
2022-10-18T22:18:38.931Z,7.22
2022-10-18T22:21:12.412Z,6.47
2022-10-18T22:23:44.955Z,6.28
2022-10-18T22:26:18.582Z,6.10
2022-10-18T22:28:57.107Z,5.40
2022-10-18T22:31:30.995Z,5.40
2022-10-18T22:34:03.298Z,5.07
2022-10-18T22:36:34.671Z,5.50
2022-10-18T22:39:05.556Z,4.50
2022-10-18T22:41:36.679Z,4.88
2022-10-18T22:44:12.200Z,4.68
2022-10-18T22:46:42.948Z,4.78
2022-10-18T22:49:14.268Z,3.88
2022-10-18T22:51:44.581Z,4.35
2022-10-18T22:54:14.866Z,3.65
2022-10-18T22:56:44.996Z,3.83
2022-10-18T22:59:17.724Z,3.42
2022-10-18T23:01:47.882Z,3.25
2022-10-18T23:04:18.045Z,3.38
2022-10-18T23:06:48.088Z,3.42
2022-10-18T23:09:18.201Z,4.10
2022-10-18T23:11:51.014Z,3.03
2022-10-18T23:14:23.989Z,3.17
2022-10-18T23:16:54.195Z,3.35
2022-10-18T23:19:24.319Z,3.53
2022-10-18T23:21:54.468Z,4.82
2022-10-18T23:24:24.689Z,3.70
2022-10-18T23:26:55.611Z,4.18
2022-10-18T23:29:28.475Z,3.78
2022-10-18T23:31:58.609Z,3.70
2022-10-18T23:34:29.154Z,3.63
2022-10-18T23:36:59.283Z,4.25
2022-10-18T23:39:29.494Z,4.38
2022-10-18T23:41:59.703Z,4.03
2022-10-18T23:44:32.525Z,4.05
2022-10-18T23:47:02.576Z,3.95
2022-10-18T23:49:32.745Z,4.25
2022-10-18T23:52:06.087Z,3.72
2022-10-18T23:54:36.549Z,3.40
2022-10-18T23:57:06.739Z,3.75
2022-10-18T23:59:39.501Z,3.47
